Time;durP1;ratioP1;P1;durP2;ratioP2;P2;SDS_P1;SDS_P2;PMS_P1;PMS_P2;Temp;Humidity;BMP_temperature;BMP_pressure;BME280_temperature;BME280_humidity;BME280_pressure;Samples;Min_cycle;Max_cycle;Signal;HPM_P1;HPM_P2
2022/10/25 00:01:15;;;;;;;2.38;0.70;;;12.30;99.90;;;;;;4993819;28;20038;-75
2022/10/25 00:03:42;;;;;;;1.58;0.50;;;12.30;99.90;;;;;;4993135;28;20034;-74
2022/10/25 00:06:13;;;;;;;2.33;0.55;;;12.20;99.90;;;;;;4994306;28;20037;-75
2022/10/25 00:08:39;;;;;;;1.85;0.98;;;12.20;99.90;;;;;;4994206;28;20034;-73
2022/10/25 00:11:07;;;;;;;3.13;0.82;;;12.20;99.90;;;;;;4992683;28;20047;-74
2022/10/25 00:13:33;;;;;;;1.95;0.50;;;12.10;99.90;;;;;;4992247;28;20061;-73
2022/10/25 00:15:59;;;;;;;2.33;0.80;;;12.00;99.90;;;;;;4994048;28;20043;-74
2022/10/25 00:18:25;;;;;;;1.75;0.50;;;11.90;99.90;;;;;;4993126;28;20034;-74
2022/10/25 00:20:52;;;;;;;1.27;0.40;;;11.90;99.90;;;;;;4993614;28;20030;-74
2022/10/25 00:23:18;;;;;;;2.53;0.52;;;11.90;99.90;;;;;;4990242;28;20106;-74
2022/10/25 00:25:44;;;;;;;1.55;0.57;;;11.90;99.90;;;;;;4993424;28;20030;-73
2022/10/25 00:28:11;;;;;;;3.08;0.65;;;11.90;99.90;;;;;;4994043;28;20034;-76
2022/10/25 00:30:37;;;;;;;2.65;0.60;;;11.90;99.90;;;;;;4987389;28;20440;-74
2022/10/25 00:33:03;;;;;;;1.80;0.50;;;11.80;99.90;;;;;;4992301;28;20038;-74
2022/10/25 00:35:29;;;;;;;2.00;0.75;;;11.80;99.90;;;;;;5002035;28;20034;-74
2022/10/25 00:37:56;;;;;;;1.85;0.55;;;11.80;99.90;;;;;;5017832;28;20026;-74
2022/10/25 00:40:22;;;;;;;1.48;0.80;;;11.80;99.90;;;;;;5009952;28;20456;-74
2022/10/25 00:42:48;;;;;;;2.22;0.60;;;11.80;99.90;;;;;;4991896;28;20034;-74
2022/10/25 00:45:27;;;;;;;2.17;0.50;;;11.90;99.90;;;;;;4992733;28;20045;-74
2022/10/25 00:48:05;;;;;;;3.33;0.60;;;11.90;99.90;;;;;;4993136;28;20463;-74
2022/10/25 00:50:53;;;;;;;2.53;0.70;;;11.90;99.90;;;;;;4992328;28;20480;-74
2022/10/25 00:53:23;;;;;;;2.75;1.10;;;11.90;99.90;;;;;;4990564;28;20050;-75
2022/10/25 00:56:22;;;;;;;1.75;0.52;;;11.90;99.90;;;;;;4993296;28;20045;-73
2022/10/25 00:58:54;;;;;;;2.70;1.10;;;11.80;99.90;;;;;;4992168;28;20042;-74
2022/10/25 01:01:21;;;;;;;2.13;0.70;;;11.90;99.90;;;;;;4990235;28;20046;-74
2022/10/25 01:03:49;;;;;;;2.03;0.70;;;11.80;99.90;;;;;;4992917;28;20057;-74
2022/10/25 01:06:30;;;;;;;3.65;0.80;;;11.90;99.90;;;;;;4991040;28;20053;-74
2022/10/25 01:08:56;;;;;;;2.13;0.70;;;11.80;99.90;;;;;;4992955;28;20030;-74
2022/10/25 01:11:23;;;;;;;3.50;0.68;;;11.80;99.90;;;;;;4990757;28;20046;-74
2022/10/25 01:13:50;;;;;;;1.30;0.50;;;11.80;99.90;;;;;;4993000;28;20456;-73
2022/10/25 01:16:31;;;;;;;4.22;0.80;;;11.80;99.90;;;;;;4992030;28;20026;-75
2022/10/25 01:19:44;;;;;;;1.88;0.80;;;11.80;99.90;;;;;;4993071;28;20038;-73
2022/10/25 01:22:24;;;;;;;1.98;0.70;;;11.70;99.90;;;;;;4990823;28;20049;-73
2022/10/25 01:25:02;;;;;;;3.13;1.17;;;11.60;99.90;;;;;;4991629;28;20034;-73
2022/10/25 01:27:52;;;;;;;3.90;1.00;;;11.60;99.90;;;;;;4992174;28;20034;-74
2022/10/25 01:30:41;;;;;;;3.33;0.93;;;11.60;99.90;;;;;;4987091;28;20026;-75
2022/10/25 01:33:26;;;;;;;3.10;1.10;;;11.60;99.90;;;;;;4947770;28;20388;-74
2022/10/25 01:36:15;;;;;;;3.33;0.93;;;11.50;99.90;;;;;;4991212;28;20046;-74
2022/10/25 01:38:51;;;;;;;2.35;0.75;;;11.50;99.90;;;;;;4992704;28;20030;-74
2022/10/25 01:41:21;;;;;;;4.75;1.00;;;11.40;99.90;;;;;;4990695;28;20515;-75
2022/10/25 01:43:53;;;;;;;2.63;1.00;;;11.40;99.90;;;;;;4992819;28;20376;-73
2022/10/25 01:46:35;;;;;;;1.92;0.65;;;11.40;99.90;;;;;;4991947;28;20388;-74
2022/10/25 01:49:05;;;;;;;5.10;1.13;;;11.40;99.90;;;;;;4992502;28;20031;-74
2022/10/25 01:51:35;;;;;;;3.00;0.60;;;11.40;99.90;;;;;;4990186;28;20042;-74
2022/10/25 01:54:02;;;;;;;4.83;2.23;;;11.30;99.90;;;;;;4992566;28;20046;-75
2022/10/25 01:56:28;;;;;;;3.75;0.75;;;11.30;99.90;;;;;;4991659;28;20278;-74
2022/10/25 01:59:00;;;;;;;3.47;0.90;;;11.20;99.90;;;;;;4992372;28;20035;-75
2022/10/25 02:02:05;;;;;;;1.75;0.65;;;11.20;99.90;;;;;;4990662;28;20038;-74
2022/10/25 02:04:46;;;;;;;3.70;1.75;;;11.20;99.90;;;;;;4913439;29;20103;-74
2022/10/25 02:07:21;;;;;;;5.28;1.42;;;11.20;99.90;;;;;;4917429;29;20036;-74
2022/10/25 02:10:11;;;;;;;5.68;1.20;;;11.20;99.90;;;;;;4917532;29;20044;-74
2022/10/25 02:12:53;;;;;;;4.07;0.95;;;11.20;99.90;;;;;;4915124;29;20545;-74
2022/10/25 02:15:53;;;;;;;4.10;1.17;;;11.10;99.90;;;;;;4915960;29;20087;-74
2022/10/25 02:18:25;;;;;;;3.45;0.95;;;11.10;99.90;;;;;;4883626;29;20525;-73
2022/10/25 02:20:53;;;;;;;3.03;0.88;;;11.00;99.90;;;;;;4916922;29;20036;-73
2022/10/25 02:23:21;;;;;;;6.05;1.15;;;11.00;99.90;;;;;;4918483;29;20055;-75
2022/10/25 02:25:48;;;;;;;4.80;1.35;;;10.90;99.90;;;;;;4918002;29;20533;-74
2022/10/25 02:28:20;;;;;;;4.10;0.98;;;11.10;99.90;;;;;;4916619;29;20051;-75
2022/10/25 02:30:48;;;;;;;3.15;1.00;;;11.10;99.90;;;;;;4916705;29;20474;-74
2022/10/25 02:33:15;;;;;;;3.75;0.80;;;11.10;99.90;;;;;;4908874;29;20392;-76
2022/10/25 02:35:41;;;;;;;3.80;1.40;;;11.10;99.90;;;;;;4966677;28;20499;-75
2022/10/25 02:38:07;;;;;;;2.25;0.80;;;11.10;99.90;;;;;;4995639;28;20035;-74
2022/10/25 02:44:18;;;;;;;6.55;1.20;;;11.00;99.90;;;;;;4994597;28;20089;-78
2022/10/25 02:46:44;;;;;;;6.45;1.17;;;10.90;99.90;;;;;;5009367;28;20053;-75
2022/10/25 02:49:11;;;;;;;3.22;1.17;;;10.90;99.90;;;;;;4994094;28;20041;-74
2022/10/25 02:51:37;;;;;;;5.72;1.40;;;10.80;99.90;;;;;;4994927;28;20042;-74
2022/10/25 02:54:03;;;;;;;1.70;1.05;;;10.90;99.90;;;;;;4994289;28;20038;-74
2022/10/25 02:56:29;;;;;;;3.90;1.42;;;10.80;99.90;;;;;;4994815;28;20030;-74
2022/10/25 02:58:57;;;;;;;3.88;1.20;;;10.70;99.90;;;;;;4995401;28;20026;-74
2022/10/25 03:01:24;;;;;;;6.20;1.40;;;10.70;99.90;;;;;;4994714;28;20038;-74
2022/10/25 03:03:51;;;;;;;6.75;1.30;;;10.60;99.90;;;;;;4994040;28;20031;-73
2022/10/25 03:06:17;;;;;;;2.20;1.00;;;10.60;99.90;;;;;;4994883;28;20027;-74
2022/10/25 03:08:45;;;;;;;3.58;1.10;;;10.60;99.90;;;;;;4995024;28;20027;-74
2022/10/25 03:11:12;;;;;;;5.28;1.83;;;10.50;99.90;;;;;;4995114;28;20034;-74
2022/10/25 03:13:38;;;;;;;8.38;1.30;;;10.50;99.90;;;;;;4993261;28;20038;-75
2022/10/25 03:16:05;;;;;;;4.32;1.30;;;10.50;99.90;;;;;;4994993;28;20037;-74
2022/10/25 03:18:31;;;;;;;3.97;1.48;;;10.40;99.90;;;;;;4986856;28;20403;-74
2022/10/25 03:20:59;;;;;;;3.63;1.75;;;10.40;99.90;;;;;;4995072;28;20471;-74
2022/10/25 03:23:26;;;;;;;7.28;2.05;;;10.50;99.90;;;;;;4992583;28;20479;-74
2022/10/25 03:25:57;;;;;;;7.55;1.55;;;10.50;99.90;;;;;;4994582;28;20051;-74
2022/10/25 03:28:24;;;;;;;3.65;2.47;;;10.40;99.90;;;;;;4994150;28;20042;-74
2022/10/25 03:30:50;;;;;;;10.88;2.00;;;10.50;99.90;;;;;;4994568;28;20395;-74
2022/10/25 03:33:17;;;;;;;4.47;2.08;;;10.50;99.90;;;;;;4991927;28;20152;-75
2022/10/25 03:35:43;;;;;;;3.20;1.58;;;10.40;99.90;;;;;;4994866;28;20045;-73
2022/10/25 03:38:09;;;;;;;6.72;2.40;;;10.30;99.90;;;;;;4994471;28;20487;-73
2022/10/25 03:40:35;;;;;;;5.10;2.05;;;10.30;99.90;;;;;;4989873;28;20468;-74
2022/10/25 03:43:02;;;;;;;6.90;1.95;;;10.30;99.90;;;;;;4993360;28;20035;-74
2022/10/25 03:45:28;;;;;;;10.20;1.90;;;10.30;99.90;;;;;;4992406;28;20069;-73
2022/10/25 03:47:54;;;;;;;5.68;1.83;;;10.30;99.90;;;;;;4994314;28;20411;-74
2022/10/25 03:50:20;;;;;;;6.50;1.58;;;10.30;99.90;;;;;;4993940;28;20054;-74
2022/10/25 03:52:46;;;;;;;5.00;1.75;;;10.30;99.90;;;;;;4990912;28;20038;-73
2022/10/25 03:55:13;;;;;;;5.93;1.75;;;10.30;99.90;;;;;;4993368;28;20038;-73
2022/10/25 03:57:39;;;;;;;8.73;2.38;;;10.20;99.90;;;;;;4993682;28;20034;-73
2022/10/25 04:00:05;;;;;;;7.85;1.90;;;10.20;99.90;;;;;;4994622;28;20392;-73
2022/10/25 04:02:37;;;;;;;5.75;2.00;;;10.20;99.90;;;;;;4999941;28;20483;-73
2022/10/25 04:05:04;;;;;;;4.40;1.85;;;10.20;99.90;;;;;;4992763;28;20045;-73
2022/10/25 04:07:30;;;;;;;4.35;1.80;;;10.20;99.90;;;;;;4992458;28;20026;-73
2022/10/25 04:09:56;;;;;;;6.45;1.55;;;10.20;99.90;;;;;;4991315;28;20030;-73
2022/10/25 04:12:22;;;;;;;8.15;2.13;;;10.20;99.90;;;;;;4985998;28;20039;-74
2022/10/25 04:14:49;;;;;;;3.85;1.40;;;10.20;99.90;;;;;;4991938;28;20128;-73
2022/10/25 04:17:15;;;;;;;6.00;2.00;;;10.20;99.90;;;;;;4993746;28;20057;-74
2022/10/25 04:19:41;;;;;;;5.25;1.50;;;10.30;99.90;;;;;;4993388;28;20031;-74
2022/10/25 04:22:11;;;;;;;5.40;1.73;;;10.30;99.90;;;;;;4993627;28;20030;-72
2022/10/25 04:24:37;;;;;;;3.97;1.77;;;10.40;99.90;;;;;;4991758;28;20375;-72
2022/10/25 04:27:03;;;;;;;3.00;1.60;;;10.40;99.90;;;;;;4993351;28;20392;-73
2022/10/25 04:29:29;;;;;;;7.05;2.05;;;10.40;99.90;;;;;;4992711;28;20030;-73
2022/10/25 04:31:55;;;;;;;4.80;1.75;;;10.50;99.90;;;;;;4993671;28;20356;-74
2022/10/25 04:34:21;;;;;;;7.70;2.40;;;10.50;99.90;;;;;;4990522;28;20031;-75
2022/10/25 04:36:47;;;;;;;4.15;2.13;;;10.50;99.90;;;;;;4992225;28;20045;-73
2022/10/25 04:39:14;;;;;;;7.25;1.98;;;10.50;99.90;;;;;;4993572;28;20053;-73
2022/10/25 04:41:40;;;;;;;8.20;1.80;;;10.60;99.90;;;;;;4987037;28;20038;-73
2022/10/25 04:44:06;;;;;;;9.45;2.78;;;10.60;99.90;;;;;;4992071;28;20051;-72
2022/10/25 04:46:32;;;;;;;6.13;2.28;;;10.60;99.90;;;;;;4992873;28;20132;-72
2022/10/25 04:48:58;;;;;;;10.35;2.38;;;10.60;99.90;;;;;;4993403;28;20034;-73
2022/10/25 04:51:24;;;;;;;5.28;1.77;;;10.70;99.90;;;;;;4993957;28;20051;-76
2022/10/25 04:53:54;;;;;;;7.43;2.90;;;10.60;99.90;;;;;;5014867;28;20053;-74
2022/10/25 04:56:22;;;;;;;3.37;1.80;;;10.70;99.90;;;;;;5016747;28;20045;-75
2022/10/25 04:58:48;;;;;;;3.63;1.65;;;10.70;99.90;;;;;;4993029;28;20266;-72
2022/10/25 05:01:16;;;;;;;6.65;2.47;;;10.60;99.90;;;;;;4991626;28;20026;-72
2022/10/25 05:03:42;;;;;;;5.18;2.13;;;10.70;99.90;;;;;;4990805;28;20133;-74
2022/10/25 05:06:11;;;;;;;5.97;2.00;;;10.70;99.90;;;;;;4993253;28;20460;-74
2022/10/25 05:08:45;;;;;;;4.50;2.35;;;10.70;99.90;;;;;;4992318;28;20034;-74
2022/10/25 05:11:13;;;;;;;5.25;2.42;;;10.80;99.90;;;;;;4992501;28;20038;-74
2022/10/25 05:13:40;;;;;;;5.45;1.92;;;10.80;99.90;;;;;;4990422;28;20459;-73
2022/10/25 05:16:10;;;;;;;6.25;2.10;;;10.90;99.90;;;;;;4993003;28;20034;-73
2022/10/25 05:18:36;;;;;;;4.82;2.40;;;11.00;99.90;;;;;;4992261;28;20035;-73
2022/10/25 05:21:04;;;;;;;3.92;1.95;;;11.00;99.90;;;;;;4988871;28;20460;-74
2022/10/25 05:23:32;;;;;;;8.02;2.20;;;11.00;99.90;;;;;;4990629;28;20041;-74
2022/10/25 05:26:09;;;;;;;5.25;2.13;;;11.10;99.90;;;;;;4992916;28;20041;-73
2022/10/25 05:28:36;;;;;;;6.10;2.17;;;11.10;99.90;;;;;;4992302;28;20030;-74
2022/10/25 05:31:07;;;;;;;5.10;2.55;;;11.10;99.90;;;;;;4991661;28;20030;-73
2022/10/25 05:33:34;;;;;;;6.82;2.25;;;11.20;99.90;;;;;;4990450;28;20046;-73
2022/10/25 05:36:02;;;;;;;7.43;2.38;;;11.30;99.90;;;;;;4992537;28;20027;-74
2022/10/25 05:38:30;;;;;;;4.25;2.15;;;11.30;99.90;;;;;;4992002;28;20395;-74
2022/10/25 05:40:58;;;;;;;5.38;2.17;;;11.40;99.90;;;;;;4992471;28;20046;-74
2022/10/25 05:43:27;;;;;;;9.50;2.28;;;11.40;99.90;;;;;;4992841;28;20054;-77
2022/10/25 05:46:03;;;;;;;4.00;1.80;;;11.40;99.90;;;;;;4992719;28;20065;-73
2022/10/25 05:48:29;;;;;;;10.88;2.30;;;11.50;99.90;;;;;;4991093;28;20046;-72
2022/10/25 05:51:07;;;;;;;5.60;2.10;;;11.50;99.90;;;;;;4991115;28;20042;-72
2022/10/25 05:53:33;;;;;;;4.75;2.08;;;11.60;99.90;;;;;;4990357;28;20243;-73
2022/10/25 05:55:59;;;;;;;5.72;1.98;;;11.60;99.90;;;;;;4992577;28;20071;-72
2022/10/25 05:58:29;;;;;;;5.72;1.60;;;11.60;99.90;;;;;;4992123;28;20385;-78
2022/10/25 06:00:58;;;;;;;7.07;2.17;;;11.70;99.90;;;;;;4992562;28;20379;-74
2022/10/25 06:03:27;;;;;;;5.53;2.10;;;11.70;99.90;;;;;;4991230;28;20046;-72
2022/10/25 06:05:53;;;;;;;10.18;2.67;;;11.70;99.90;;;;;;4992476;28;20034;-74
2022/10/25 06:08:19;;;;;;;6.63;2.00;;;11.70;99.90;;;;;;4992515;28;20034;-73
2022/10/25 06:10:45;;;;;;;7.97;2.63;;;11.70;99.90;;;;;;4991750;28;20198;-74
2022/10/25 06:13:11;;;;;;;4.65;2.03;;;11.70;99.90;;;;;;4990811;28;20046;-73
2022/10/25 06:15:38;;;;;;;6.43;2.58;;;11.70;99.90;;;;;;4991921;28;20038;-73
2022/10/25 06:18:04;;;;;;;9.38;3.70;;;11.70;99.90;;;;;;4992741;28;20387;-73
2022/10/25 06:20:30;;;;;;;5.60;2.03;;;11.80;99.90;;;;;;4990434;28;20388;-73
2022/10/25 06:22:56;;;;;;;5.75;4.13;;;11.80;99.90;;;;;;4990958;28;20038;-74
2022/10/25 06:25:22;;;;;;;5.50;2.70;;;11.80;99.90;;;;;;4992477;28;20041;-72
2022/10/25 06:27:48;;;;;;;7.38;2.97;;;11.90;99.90;;;;;;4991411;28;20022;-73
2022/10/25 06:30:14;;;;;;;9.45;2.30;;;11.90;99.90;;;;;;4992029;28;20038;-73
2022/10/25 06:32:40;;;;;;;9.82;2.38;;;11.90;99.90;;;;;;4990864;28;20418;-73
2022/10/25 06:35:07;;;;;;;6.13;2.42;;;12.00;99.90;;;;;;4991202;28;20026;-73
2022/10/25 06:37:33;;;;;;;5.32;2.22;;;12.10;99.90;;;;;;4991394;28;20097;-74
2022/10/25 06:39:59;;;;;;;5.88;3.42;;;12.10;99.90;;;;;;4992272;28;20361;-72
2022/10/25 06:42:25;;;;;;;5.97;2.75;;;12.20;99.90;;;;;;4990310;28;20051;-73
2022/10/25 06:44:51;;;;;;;6.40;2.17;;;12.20;99.90;;;;;;4990375;28;20037;-73
2022/10/25 06:47:17;;;;;;;6.68;2.42;;;12.10;99.90;;;;;;4992674;28;20403;-73
2022/10/25 06:49:44;;;;;;;9.48;2.30;;;12.10;99.90;;;;;;4991449;28;20506;-73
2022/10/25 06:52:11;;;;;;;8.32;2.58;;;12.10;99.90;;;;;;4995005;28;20034;-72
2022/10/25 06:54:37;;;;;;;4.53;1.95;;;12.20;99.90;;;;;;4993282;28;20046;-74
2022/10/25 06:57:03;;;;;;;4.57;1.70;;;12.20;99.90;;;;;;4995502;28;20034;-73
2022/10/25 06:59:29;;;;;;;5.43;2.00;;;12.30;99.90;;;;;;4994917;28;20026;-77
2022/10/25 07:01:56;;;;;;;4.72;1.98;;;12.40;99.90;;;;;;4995016;28;20053;-73
2022/10/25 07:04:22;;;;;;;8.85;1.58;;;12.60;99.90;;;;;;4993950;28;20037;-72
2022/10/25 07:06:48;;;;;;;5.68;1.55;;;12.80;99.90;;;;;;4994361;28;20221;-72
2022/10/25 07:09:14;;;;;;;5.80;2.67;;;12.80;99.90;;;;;;4995091;28;20037;-74
2022/10/25 07:11:41;;;;;;;6.50;2.05;;;12.80;99.90;;;;;;4993269;28;20081;-73
2022/10/25 07:14:08;;;;;;;6.45;2.53;;;12.90;99.90;;;;;;4993795;28;20498;-74
2022/10/25 07:16:34;;;;;;;6.22;2.20;;;13.10;99.90;;;;;;4994075;28;20038;-72
2022/10/25 07:19:02;;;;;;;8.73;2.10;;;13.40;99.90;;;;;;4994815;28;20030;-72
2022/10/25 07:21:32;;;;;;;6.05;1.85;;;13.70;99.90;;;;;;4994853;28;20464;-76
2022/10/25 07:23:59;;;;;;;7.57;1.80;;;14.00;99.90;;;;;;4993769;28;20042;-72
2022/10/25 07:26:28;;;;;;;4.50;1.65;;;14.30;99.90;;;;;;4995006;28;20035;-74
2022/10/25 07:28:56;;;;;;;6.22;1.77;;;14.40;99.90;;;;;;4994762;28;20041;-72
2022/10/25 07:31:25;;;;;;;7.85;1.80;;;14.60;99.90;;;;;;4994745;28;20038;-73
2022/10/25 07:33:53;;;;;;;7.63;2.33;;;14.80;99.90;;;;;;4992413;28;20133;-73
2022/10/25 07:36:20;;;;;;;9.00;2.35;;;15.10;99.90;;;;;;4994702;28;20045;-73
2022/10/25 07:38:46;;;;;;;5.80;2.10;;;15.10;99.90;;;;;;4994265;28;20042;-73
2022/10/25 07:41:12;;;;;;;7.88;1.70;;;15.10;99.90;;;;;;4993329;28;20026;-73
2022/10/25 07:43:38;;;;;;;6.85;1.40;;;15.20;99.90;;;;;;4992700;28;20038;-73
2022/10/25 07:46:05;;;;;;;4.35;1.40;;;15.20;99.90;;;;;;4994726;28;20407;-73
2022/10/25 07:48:33;;;;;;;3.97;1.92;;;15.20;99.90;;;;;;4993831;28;20026;-74
2022/10/25 07:51:17;;;;;;;3.38;1.38;;;15.30;99.90;;;;;;4994770;28;20042;-73
2022/10/25 07:53:43;;;;;;;3.42;1.70;;;15.20;99.90;;;;;;4991191;28;20049;-74
2022/10/25 07:56:14;;;;;;;8.52;2.35;;;15.30;99.90;;;;;;4993823;28;20046;-72
2022/10/25 07:58:40;;;;;;;5.15;2.47;;;15.20;99.90;;;;;;4993641;28;20369;-73
2022/10/25 08:01:08;;;;;;;7.80;1.98;;;15.30;99.90;;;;;;4992935;28;20042;-74
2022/10/25 08:03:35;;;;;;;7.10;2.63;;;15.50;99.90;;;;;;4989585;28;20061;-74
2022/10/25 08:06:02;;;;;;;4.18;2.20;;;15.70;99.90;;;;;;4994165;28;20035;-74
2022/10/25 08:08:29;;;;;;;4.18;1.67;;;15.80;99.90;;;;;;4993965;28;20041;-73
2022/10/25 08:10:55;;;;;;;6.43;2.38;;;15.70;99.90;;;;;;4992205;28;20038;-74
2022/10/25 08:13:22;;;;;;;6.70;2.40;;;15.50;99.90;;;;;;4992704;28;20043;-74
2022/10/25 08:15:50;;;;;;;6.90;2.03;;;15.20;99.90;;;;;;4993237;28;20034;-74
2022/10/25 08:18:16;;;;;;;8.02;1.98;;;15.00;99.90;;;;;;4992434;28;20046;-74
2022/10/25 08:20:42;;;;;;;6.28;1.90;;;15.30;99.90;;;;;;4993413;28;20464;-73
2022/10/25 08:23:08;;;;;;;6.00;1.80;;;15.50;99.90;;;;;;4992426;28;20030;-74
2022/10/25 08:25:34;;;;;;;6.03;1.75;;;15.40;99.90;;;;;;4993101;28;20042;-73
2022/10/25 08:28:01;;;;;;;6.50;1.50;;;15.20;99.90;;;;;;4993548;28;20030;-73
2022/10/25 08:30:27;;;;;;;8.07;2.38;;;14.80;99.90;;;;;;4993382;28;20047;-74
2022/10/25 08:32:53;;;;;;;8.35;1.95;;;14.80;99.90;;;;;;4991538;28;20050;-74
2022/10/25 08:35:19;;;;;;;7.38;1.83;;;14.90;99.90;;;;;;4993353;28;20035;-74
2022/10/25 08:37:45;;;;;;;5.30;1.35;;;14.80;99.90;;;;;;4992824;28;20042;-74
2022/10/25 08:40:23;;;;;;;4.43;1.35;;;14.80;99.90;;;;;;4993496;28;20030;-74
2022/10/25 08:43:16;;;;;;;4.05;1.88;;;14.70;99.90;;;;;;4991137;28;20403;-74
2022/10/25 08:46:15;;;;;;;7.38;2.45;;;14.90;99.90;;;;;;4993714;28;20027;-74
2022/10/25 08:48:46;;;;;;;3.05;1.35;;;15.20;99.90;;;;;;4977859;28;20050;-73
2022/10/25 08:51:28;;;;;;;4.70;1.65;;;16.20;99.90;;;;;;4993567;28;20050;-73
2022/10/25 08:53:58;;;;;;;4.47;1.40;;;17.40;99.90;;;;;;4991327;28;20046;-73
2022/10/25 08:56:27;;;;;;;6.78;1.40;;;17.30;99.90;;;;;;4992909;28;20046;-73
2022/10/25 08:59:01;;;;;;;5.88;2.42;;;16.60;99.90;;;;;;4992832;28;20037;-74
2022/10/25 09:01:46;;;;;;;7.95;2.45;;;16.40;99.90;;;;;;4993090;28;20030;-73
2022/10/25 09:04:14;;;;;;;4.93;1.08;;;16.90;99.90;;;;;;4991783;28;20037;-74
2022/10/25 09:07:16;;;;;;;6.30;1.50;;;16.80;99.90;;;;;;4991363;28;20468;-74
2022/10/25 09:10:11;;;;;;;4.10;1.40;;;16.50;99.90;;;;;;5012762;28;20033;-76
2022/10/25 09:12:55;;;;;;;7.55;1.98;;;16.40;99.90;;;;;;5014515;28;20048;-75
2022/10/25 09:15:33;;;;;;;4.47;1.42;;;16.40;99.90;;;;;;4993308;28;20041;-73
2022/10/25 09:18:05;;;;;;;3.85;1.02;;;16.40;99.90;;;;;;4993181;28;20137;-74
2022/10/25 09:20:44;;;;;;;2.88;1.02;;;16.50;99.90;;;;;;4993204;28;20413;-77
2022/10/25 09:23:23;;;;;;;5.47;2.13;;;16.40;99.90;;;;;;4991489;28;20042;-75
2022/10/25 09:25:55;;;;;;;5.78;1.52;;;16.60;99.90;;;;;;5000367;28;20484;-74
2022/10/25 09:28:28;;;;;;;5.70;1.92;;;16.70;99.90;;;;;;4992787;28;20433;-74
2022/10/25 09:30:58;;;;;;;5.72;1.73;;;16.80;99.90;;;;;;4992229;28;20050;-75
2022/10/25 09:33:29;;;;;;;5.63;1.25;;;16.60;99.90;;;;;;4991252;28;20038;-72
2022/10/25 09:35:59;;;;;;;4.97;1.92;;;16.60;99.90;;;;;;4992373;28;20034;-73
2022/10/25 09:38:49;;;;;;;7.30;1.27;;;16.80;99.90;;;;;;4993325;28;20041;-74
2022/10/25 09:41:21;;;;;;;4.97;1.48;;;16.90;99.90;;;;;;4986681;28;20258;-75
2022/10/25 09:44:03;;;;;;;9.50;1.48;;;17.00;99.90;;;;;;4980106;28;20038;-74
2022/10/25 09:46:40;;;;;;;6.40;1.48;;;17.00;99.90;;;;;;4988347;28;20027;-73
2022/10/25 09:49:15;;;;;;;3.38;1.05;;;16.90;99.90;;;;;;4992344;28;20049;-73
2022/10/25 09:52:13;;;;;;;2.80;0.98;;;16.80;99.90;;;;;;4992541;28;20049;-73
2022/10/25 09:55:11;;;;;;;8.60;1.17;;;16.60;99.90;;;;;;4990417;28;20050;-74
2022/10/25 09:57:38;;;;;;;4.60;1.60;;;16.30;99.90;;;;;;4980613;28;20042;-74
2022/10/25 10:00:04;;;;;;;4.13;1.45;;;16.20;99.90;;;;;;4991223;28;20388;-74
2022/10/25 10:02:39;;;;;;;8.25;2.08;;;16.10;99.90;;;;;;4998226;28;20043;-72
2022/10/25 10:05:11;;;;;;;3.50;1.20;;;16.10;99.90;;;;;;4991181;28;20038;-73
2022/10/25 10:07:38;;;;;;;7.00;1.33;;;16.20;99.90;;;;;;4992025;28;20031;-74
2022/10/25 10:10:10;;;;;;;5.03;1.17;;;16.20;99.90;;;;;;5006911;28;20038;-74
2022/10/25 10:12:55;;;;;;;4.28;1.25;;;16.50;99.90;;;;;;4991941;28;20039;-73
2022/10/25 10:15:37;;;;;;;4.60;1.50;;;16.90;99.90;;;;;;4991313;28;20045;-73
2022/10/25 10:18:25;;;;;;;4.45;1.30;;;17.00;99.90;;;;;;4992505;28;20038;-72
2022/10/25 10:21:19;;;;;;;3.35;1.15;;;16.70;99.90;;;;;;4991910;28;20030;-74
2022/10/25 10:23:53;;;;;;;4.70;1.25;;;16.80;99.90;;;;;;4989470;28;20403;-74
2022/10/25 10:26:22;;;;;;;11.82;1.25;;;16.80;99.90;;;;;;4986427;28;20049;-74
2022/10/25 10:29:02;;;;;;;6.35;2.08;;;16.90;99.90;;;;;;4989518;28;20030;-74
2022/10/25 10:31:49;;;;;;;4.90;1.23;;;16.90;99.90;;;;;;4995886;28;20042;-74
2022/10/25 10:34:41;;;;;;;12.40;1.70;;;17.10;99.90;;;;;;4994424;28;20301;-73
2022/10/25 10:37:21;;;;;;;2.25;0.98;;;17.20;99.90;;;;;;4995856;28;20042;-73
2022/10/25 10:39:55;;;;;;;3.88;1.15;;;17.00;99.90;;;;;;4995055;28;20030;-73
2022/10/25 10:42:36;;;;;;;5.38;1.17;;;17.00;99.90;;;;;;4995847;28;20038;-74
2022/10/25 10:45:14;;;;;;;2.50;0.98;;;16.80;99.90;;;;;;4992993;28;20041;-73
2022/10/25 10:47:56;;;;;;;5.55;0.90;;;16.70;99.90;;;;;;4994939;28;20034;-73
2022/10/25 10:50:27;;;;;;;7.20;1.27;;;16.80;99.90;;;;;;4995612;28;20054;-73
2022/10/25 10:53:05;;;;;;;;;;;16.70;99.90;;;;;;4995530;28;20030;-73
2022/10/25 10:55:45;;;;;;;4.45;1.10;;;16.80;99.90;;;;;;4994296;28;19909;-73
2022/10/25 10:58:25;;;;;;;9.82;1.52;;;16.90;99.90;;;;;;4995551;28;20049;-72
2022/10/25 11:01:09;;;;;;;7.88;1.00;;;16.80;99.90;;;;;;4994958;28;20034;-74
2022/10/25 11:03:41;;;;;;;5.88;1.00;;;17.00;99.90;;;;;;4995160;28;20046;-74
2022/10/25 11:06:26;;;;;;;4.68;1.10;;;17.60;99.90;;;;;;4993902;28;20042;-73
2022/10/25 11:09:21;;;;;;;7.68;1.73;;;18.00;99.90;;;;;;4995165;28;20038;-74
2022/10/25 11:12:13;;;;;;;4.55;1.30;;;18.20;99.90;;;;;;4994981;28;20035;-73
2022/10/25 11:14:40;;;;;;;7.13;0.98;;;18.10;99.90;;;;;;4993086;28;20043;-73
2022/10/25 11:17:21;;;;;;;6.72;1.30;;;18.00;99.90;;;;;;4993747;28;20578;-73
2022/10/25 11:20:19;;;;;;;5.78;1.40;;;17.90;99.90;;;;;;4995661;28;20034;-73
2022/10/25 11:23:00;;;;;;;9.88;1.63;;;17.60;99.90;;;;;;4986274;28;20057;-74
2022/10/25 11:25:40;;;;;;;5.93;1.05;;;17.20;99.90;;;;;;4993447;28;20042;-73
2022/10/25 11:28:33;;;;;;;5.57;1.00;;;17.10;99.90;;;;;;4994744;28;20045;-74
2022/10/25 11:31:26;;;;;;;4.70;1.38;;;17.20;99.90;;;;;;4994294;28;20057;-74
2022/10/25 11:34:28;;;;;;;4.35;0.80;;;17.30;99.90;;;;;;4993508;28;20038;-73
2022/10/25 11:37:10;;;;;;;3.83;1.00;;;17.30;99.90;;;;;;5004067;28;20082;-74
2022/10/25 11:39:52;;;;;;;7.75;0.98;;;17.30;99.90;;;;;;4994587;28;20045;-74
2022/10/25 11:42:55;;;;;;;5.55;1.25;;;17.30;99.90;;;;;;4994785;28;20046;-73
2022/10/25 11:45:31;;;;;;;5.63;0.90;;;17.30;99.90;;;;;;4992907;28;20042;-73
2022/10/25 11:48:17;;;;;;;4.53;1.08;;;17.20;99.90;;;;;;4993724;28;20034;-74
2022/10/25 11:50:53;;;;;;;2.38;0.82;;;17.30;99.90;;;;;;4994065;28;20050;-73
2022/10/25 11:53:51;;;;;;;4.53;0.50;;;17.80;99.90;;;;;;4993102;28;20046;-73
2022/10/25 11:56:32;;;;;;;3.38;0.75;;;18.20;98.30;;;;;;4993521;28;20035;-73
2022/10/25 11:59:19;;;;;;;8.38;1.27;;;18.20;94.10;;;;;;4993461;28;20031;-73
2022/10/25 12:01:54;;;;;;;4.18;0.77;;;18.40;95.90;;;;;;4993364;28;20498;-73
2022/10/25 12:04:38;;;;;;;2.88;0.70;;;18.40;96.20;;;;;;4993118;28;20041;-73
2022/10/25 12:07:21;;;;;;;1.92;0.63;;;18.20;95.70;;;;;;4982352;28;20049;-76
2022/10/25 12:09:56;;;;;;;2.60;1.00;;;18.20;98.10;;;;;;4971720;28;20049;-73
2022/10/25 12:12:31;;;;;;;3.97;0.93;;;18.10;97.10;;;;;;4986317;28;20383;-74
2022/10/25 12:14:59;;;;;;;5.80;1.35;;;18.00;98.20;;;;;;4991930;28;20042;-73
2022/10/25 12:17:31;;;;;;;4.85;1.02;;;17.90;99.70;;;;;;5008128;28;20046;-73
2022/10/25 12:20:00;;;;;;;5.45;0.98;;;17.70;99.90;;;;;;4993091;28;20030;-74
2022/10/25 12:22:33;;;;;;;3.83;0.75;;;17.60;99.90;;;;;;4992511;28;20045;-74
2022/10/25 12:25:04;;;;;;;3.42;1.10;;;17.60;99.90;;;;;;4993528;28;20046;-73
2022/10/25 12:27:30;;;;;;;;;;;17.50;99.90;;;;;;4976223;28;20041;-72
2022/10/25 12:30:12;;;;;;;4.68;1.05;;;17.50;99.90;;;;;;4993006;28;19909;-74
2022/10/25 12:32:49;;;;;;;2.67;0.80;;;17.50;99.90;;;;;;4991984;28;20069;-74
2022/10/25 12:35:29;;;;;;;8.85;1.20;;;17.60;99.90;;;;;;4976129;28;20061;-73
2022/10/25 12:38:00;;;;;;;3.83;0.98;;;17.80;99.90;;;;;;4993116;28;20039;-73
2022/10/25 12:40:27;;;;;;;5.88;1.13;;;18.00;99.90;;;;;;4993588;28;20038;-74
2022/10/25 12:43:10;;;;;;;5.35;1.05;;;18.10;99.90;;;;;;4991831;28;20030;-74
2022/10/25 12:45:38;;;;;;;4.25;1.02;;;18.20;99.50;;;;;;4993839;28;20049;-74
2022/10/25 12:48:19;;;;;;;7.07;1.10;;;18.10;98.30;;;;;;4992403;28;20035;-72
2022/10/25 12:50:53;;;;;;;5.30;1.10;;;18.00;99.00;;;;;;4991862;28;20062;-76
2022/10/25 12:53:32;;;;;;;4.80;1.20;;;18.00;99.90;;;;;;4993271;28;20034;-73
2022/10/25 12:56:19;;;;;;;5.90;1.25;;;18.10;99.90;;;;;;4992720;28;20038;-73
2022/10/25 12:59:29;;;;;;;3.13;0.85;;;18.10;99.90;;;;;;4991660;28;20537;-74
2022/10/25 13:02:14;;;;;;;;;;;18.20;99.10;;;;;;4945611;28;20050;-73
2022/10/25 13:04:52;;;;;;;2.45;1.10;;;18.00;99.90;;;;;;4988587;28;20275;-73
2022/10/25 13:07:21;;;;;;;3.60;0.85;;;18.00;99.90;;;;;;4991935;28;20042;-73
2022/10/25 13:09:48;;;;;;;7.80;1.50;;;18.00;99.90;;;;;;4992267;28;20026;-74
2022/10/25 13:12:14;;;;;;;4.78;0.98;;;18.10;99.90;;;;;;4990942;28;20038;-72
2022/10/25 13:14:46;;;;;;;6.53;1.25;;;18.30;99.30;;;;;;4992844;28;20043;-72
2022/10/25 13:17:42;;;;;;;4.53;0.88;;;18.40;99.30;;;;;;4993623;28;20042;-72
2022/10/25 13:20:17;;;;;;;3.78;1.10;;;18.40;97.40;;;;;;4992790;28;20471;-73